Time;durP1;ratioP1;P1;durP2;ratioP2;P2;SDS_P1;SDS_P2;PMS_P1;PMS_P2;Temp;Humidity;BMP_temperature;BMP_pressure;BME280_temperature;BME280_humidity;BME280_pressure;Samples;Min_cycle;Max_cycle;Signal;HPM_P1;HPM_P2
2022/12/20 00:02:03;;;;;;;15.10;7.30;;;5.60;68.00;;;0.64;100.00;96192.63;4919799;29;20047;-47
2022/12/20 00:04:29;;;;;;;14.10;7.15;;;5.70;68.10;;;0.65;100.00;96194.22;4941339;28;20378;-48
2022/12/20 00:06:55;;;;;;;14.95;7.78;;;5.70;68.00;;;0.71;100.00;96199.75;4935187;28;20089;-48
2022/12/20 00:09:24;;;;;;;13.68;7.22;;;5.80;68.00;;;0.75;100.00;96199.16;4923343;29;20026;-46
2022/12/20 00:11:59;;;;;;;13.00;6.75;;;5.80;68.70;;;0.80;100.00;96201.25;4933660;28;20610;-47
2022/12/20 00:14:25;;;;;;;10.10;6.13;;;5.90;68.00;;;0.81;100.00;96194.97;4934421;29;20035;-49
2022/12/20 00:16:51;;;;;;;11.82;6.32;;;5.90;67.90;;;0.85;100.00;96191.00;4936830;28;20038;-52
2022/12/20 00:19:17;;;;;;;11.73;6.22;;;6.00;68.00;;;0.89;100.00;96185.19;4954595;28;20022;-48
2022/12/20 00:21:43;;;;;;;11.77;5.68;;;6.00;67.90;;;0.91;100.00;96185.00;4952904;28;20022;-49
2022/12/20 00:24:09;;;;;;;11.43;5.45;;;6.00;67.80;;;0.96;100.00;96190.47;4945447;28;20569;-48
2022/12/20 00:26:36;;;;;;;10.88;6.32;;;6.00;67.70;;;0.94;100.00;96184.63;4937253;28;20101;-54
2022/12/20 00:29:11;;;;;;;10.57;6.57;;;6.10;67.70;;;0.95;100.00;96185.44;4926684;29;20019;-53
2022/12/20 00:31:37;;;;;;;13.52;6.82;;;6.10;67.60;;;0.92;100.00;96184.81;4953571;28;20103;-47
2022/12/20 00:34:04;;;;;;;12.80;6.97;;;6.10;67.60;;;0.93;100.00;96189.03;4952628;28;20111;-51
2022/12/20 00:36:33;;;;;;;11.48;6.65;;;6.10;67.50;;;0.88;100.00;96186.19;4954054;28;20065;-49
2022/12/20 00:39:00;;;;;;;10.40;6.03;;;6.10;67.50;;;0.91;100.00;96187.63;4936208;28;20042;-50
2022/12/20 00:41:38;;;;;;;11.80;6.20;;;6.10;67.40;;;0.87;100.00;96189.78;4936144;28;20089;-50
2022/12/20 00:44:07;;;;;;;12.30;6.80;;;6.00;67.30;;;0.80;100.00;96182.88;4931796;28;20027;-47
2022/12/20 00:46:34;;;;;;;11.02;5.68;;;6.10;67.30;;;0.83;100.00;96174.63;4946275;28;20051;-48
2022/12/20 00:49:01;;;;;;;11.35;5.60;;;6.00;67.20;;;0.76;100.00;96166.72;4934551;29;20058;-48
2022/12/20 00:51:30;;;;;;;11.93;6.20;;;6.00;67.10;;;0.72;100.00;96178.56;4920968;29;20030;-46
2022/12/20 00:53:56;;;;;;;10.40;5.75;;;5.90;67.10;;;0.67;100.00;96173.09;4948915;28;20046;-46
2022/12/20 00:56:25;;;;;;;13.10;6.32;;;5.90;67.20;;;0.65;100.00;96168.00;4933736;29;20035;-49
2022/12/20 00:58:58;;;;;;;12.45;5.88;;;5.80;67.20;;;0.66;100.00;96164.41;4951917;28;20056;-50
2022/12/20 01:01:29;;;;;;;11.75;6.03;;;5.80;67.30;;;0.66;100.00;96161.78;4933763;29;20031;-53
2022/12/20 01:03:56;;;;;;;12.18;6.60;;;5.80;67.30;;;0.63;100.00;96182.34;4929629;28;20201;-52
2022/12/20 01:06:31;;;;;;;12.30;6.38;;;5.80;67.30;;;0.56;100.00;96171.75;4909317;29;20023;-49
2022/12/20 01:08:58;;;;;;;9.88;5.45;;;5.80;67.30;;;0.51;100.00;96175.97;4934929;28;20038;-48
2022/12/20 01:11:35;;;;;;;12.73;6.65;;;5.80;67.30;;;0.49;100.00;96163.03;4954244;28;20019;-46
2022/12/20 01:14:14;;;;;;;11.23;5.78;;;5.70;67.20;;;0.39;100.00;96160.72;4940678;28;20030;-47
2022/12/20 01:16:45;;;;;;;9.90;5.97;;;5.70;67.10;;;0.39;100.00;96168.56;4916438;29;20094;-51
2022/12/20 01:19:16;;;;;;;12.93;6.25;;;5.60;67.00;;;0.33;100.00;96161.47;4926956;28;20489;-51
2022/12/20 01:21:45;;;;;;;14.20;6.95;;;5.60;67.00;;;0.29;100.00;96162.03;4915784;28;20035;-48
2022/12/20 01:24:18;;;;;;;12.90;7.38;;;5.50;67.00;;;0.25;100.00;96158.94;4936479;28;20085;-50
2022/12/20 01:26:45;;;;;;;15.23;7.47;;;5.50;67.20;;;0.25;100.00;96150.28;4934755;28;20825;-47
2022/12/20 01:29:12;;;;;;;12.55;6.63;;;5.40;67.30;;;0.33;100.00;96163.28;4924697;29;20037;-46
2022/12/20 01:31:39;;;;;;;11.52;6.05;;;5.40;67.60;;;0.46;100.00;96161.59;4917454;29;20458;-51
2022/12/20 01:34:26;;;;;;;11.63;5.53;;;5.50;67.90;;;0.59;100.00;96152.22;4928597;28;20030;-50
2022/12/20 01:36:52;;;;;;;12.38;5.93;;;5.50;68.10;;;0.67;100.00;96158.16;4944532;28;20378;-52
2022/12/20 01:39:21;;;;;;;9.02;5.60;;;5.60;68.20;;;0.73;100.00;96158.41;4918129;29;20026;-50
2022/12/20 01:41:58;;;;;;;12.02;5.95;;;5.60;68.20;;;0.72;100.00;96160.19;4934108;29;20410;-49
2022/12/20 01:44:27;;;;;;;11.02;5.95;;;5.60;68.10;;;0.68;100.00;96165.00;4930148;29;20072;-47
2022/12/20 01:47:03;;;;;;;12.68;5.55;;;5.70;68.00;;;0.67;100.00;96163.41;4950964;28;20106;-47
2022/12/20 01:49:43;;;;;;;11.88;5.65;;;5.70;68.00;;;0.71;100.00;96160.41;4935577;28;20558;-47
2022/12/20 01:52:25;;;;;;;9.13;4.65;;;5.70;68.00;;;0.65;100.00;96148.84;4915222;29;20026;-50
2022/12/20 01:55:23;;;;;;;9.75;4.97;;;5.70;68.00;;;0.64;100.00;96142.81;4922366;29;20097;-51
2022/12/20 01:58:05;;;;;;;8.02;4.53;;;5.70;67.80;;;0.66;100.00;96146.06;4916437;28;20427;-48
2022/12/20 02:00:31;;;;;;;7.63;4.82;;;5.70;67.80;;;0.62;100.00;96142.16;4949482;28;20019;-48
2022/12/20 02:03:07;;;;;;;8.98;4.55;;;5.70;67.80;;;0.63;100.00;96135.94;4934249;28;20046;-46
2022/12/20 02:05:40;;;;;;;7.47;4.65;;;5.70;67.80;;;0.64;100.00;96134.94;4951462;28;20022;-47
2022/12/20 02:08:10;;;;;;;8.57;4.35;;;5.70;67.70;;;0.62;100.00;96139.53;4933505;29;20031;-49
2022/12/20 02:11:39;;;;;;;8.45;4.82;;;5.70;67.70;;;0.66;100.00;96140.00;4916068;29;20031;-52
2022/12/20 02:15:00;;;;;;;9.00;4.80;;;5.80;67.70;;;0.67;100.00;96134.56;4941635;28;20394;-50
2022/12/20 02:18:43;;;;;;;7.90;4.18;;;5.70;67.80;;;0.69;100.00;96134.38;4931687;29;20126;-51
2022/12/20 02:21:48;;;;;;;6.38;4.10;;;5.80;67.80;;;0.67;100.00;96126.69;4902023;29;20023;-51
2022/12/20 02:25:04;;;;;;;7.00;3.80;;;5.80;67.80;;;0.65;100.00;96123.44;4936426;28;20061;-50
2022/12/20 02:28:07;;;;;;;7.65;3.38;;;5.70;67.70;;;0.67;100.00;96120.63;4930465;29;20031;-47
2022/12/20 02:30:44;;;;;;;5.75;3.33;;;5.70;67.70;;;0.66;100.00;96119.03;4926042;28;20117;-48
2022/12/20 02:33:14;;;;;;;6.90;3.60;;;5.70;67.80;;;0.67;100.00;96120.63;4919338;28;20025;-47
2022/12/20 02:35:41;;;;;;;4.57;3.40;;;5.70;67.80;;;0.71;100.00;96115.81;4952231;28;20066;-52
2022/12/20 02:38:38;;;;;;;6.38;3.63;;;5.70;67.90;;;0.75;100.00;96115.25;4934532;28;20519;-47
2022/12/20 02:41:52;;;;;;;6.32;3.60;;;5.70;67.90;;;0.73;100.00;96109.41;4952420;28;20128;-49
2022/12/20 02:47:59;;;;;;;5.30;3.28;;;5.70;67.80;;;0.55;100.00;96099.34;4937546;28;20109;-48
2022/12/20 02:50:44;;;;;;;6.15;3.58;;;5.70;67.70;;;0.54;100.00;96095.13;4921672;28;20065;-51
2022/12/20 02:53:12;;;;;;;4.68;3.08;;;5.60;67.70;;;0.58;100.00;96104.22;4931435;29;20573;-48
2022/12/20 02:55:57;;;;;;;4.28;2.83;;;5.60;67.70;;;0.55;100.00;96095.94;4915334;29;20031;-50
2022/12/20 02:59:15;;;;;;;3.83;2.90;;;5.60;67.70;;;0.52;100.00;96091.88;4928516;29;20027;-48
2022/12/20 03:01:54;;;;;;;4.57;2.90;;;5.60;67.60;;;0.48;100.00;96087.22;4915205;29;20070;-49
2022/12/20 03:04:31;;;;;;;5.68;3.13;;;5.60;67.70;;;0.46;100.00;96085.56;4928410;29;20023;-48
2022/12/20 03:07:08;;;;;;;6.07;2.90;;;5.50;67.50;;;0.43;100.00;96085.94;4922054;29;20493;-53
2022/12/20 03:09:40;;;;;;;4.85;3.03;;;5.50;67.60;;;0.37;100.00;96078.81;4932559;29;20548;-48
2022/12/20 03:12:12;;;;;;;7.03;3.13;;;5.50;67.50;;;0.34;100.00;96075.78;4930503;29;20413;-46
2022/12/20 03:14:39;;;;;;;4.88;3.10;;;5.50;67.50;;;0.31;100.00;96071.72;4914653;29;20031;-53
2022/12/20 03:17:09;;;;;;;4.75;3.00;;;5.40;67.40;;;0.30;100.00;96079.78;4951304;29;20045;-51
2022/12/20 03:19:38;;;;;;;5.95;3.42;;;5.40;67.50;;;0.26;100.00;96081.97;4934717;29;20488;-48
2022/12/20 03:22:04;;;;;;;6.25;3.83;;;5.40;67.50;;;0.21;100.00;96079.91;4938508;29;20034;-49
2022/12/20 03:24:31;;;;;;;5.00;2.70;;;5.30;67.40;;;0.15;100.00;96075.41;4950260;29;20022;-52
2022/12/20 03:27:10;;;;;;;5.35;2.85;;;5.30;67.40;;;0.10;100.00;96067.31;4930731;29;20034;-53
2022/12/20 03:29:36;;;;;;;4.20;3.00;;;5.30;67.50;;;0.05;100.00;96068.88;4932584;29;20367;-53
2022/12/20 03:32:04;;;;;;;8.90;4.32;;;5.20;67.40;;;0.00;100.00;96074.69;4932060;29;20042;-49
2022/12/20 03:34:30;;;;;;;6.70;3.70;;;5.20;67.40;;;-0.05;100.00;96069.97;4928409;29;20412;-47
2022/12/20 03:37:02;;;;;;;5.95;3.60;;;5.20;67.50;;;-0.08;100.00;96064.31;4933793;29;20038;-48
2022/12/20 03:39:34;;;;;;;5.22;3.53;;;5.20;67.60;;;-0.10;100.00;96061.06;4952629;28;20413;-51
2022/12/20 03:42:00;;;;;;;5.75;3.00;;;5.10;67.60;;;-0.12;100.00;96061.25;4954682;28;20461;-48
2022/12/20 03:44:35;;;;;;;7.15;3.25;;;5.10;67.60;;;-0.11;100.00;96054.19;4953681;28;20062;-50
2022/12/20 03:47:01;;;;;;;5.20;3.03;;;5.00;67.60;;;-0.13;100.00;96048.34;4933922;29;20470;-48
2022/12/20 03:49:39;;;;;;;5.68;3.25;;;5.10;67.70;;;-0.08;100.00;96057.25;4936052;28;20037;-53
2022/12/20 03:52:05;;;;;;;4.63;3.08;;;5.10;67.80;;;-0.08;100.00;96048.59;4945109;28;20385;-49
2022/12/20 03:54:37;;;;;;;4.55;2.83;;;5.10;67.90;;;-0.07;100.00;96050.19;4932565;29;20097;-48
2022/12/20 03:57:06;;;;;;;5.22;3.35;;;5.00;67.90;;;-0.07;100.00;96047.59;4930326;29;20035;-53
2022/12/20 03:59:35;;;;;;;7.05;3.40;;;5.00;67.90;;;-0.03;100.00;96061.94;4928558;29;20030;-48
2022/12/20 04:02:02;;;;;;;6.45;3.20;;;5.00;68.10;;;0.03;100.00;96049.91;4937651;28;20557;-47
2022/12/20 04:04:29;;;;;;;5.03;2.97;;;5.10;68.20;;;0.03;100.00;96050.69;4934263;28;20027;-46
2022/12/20 04:06:58;;;;;;;5.40;3.00;;;5.10;68.20;;;0.06;100.00;96049.53;4929510;29;20125;-46
2022/12/20 04:09:41;;;;;;;5.30;2.83;;;5.10;68.30;;;0.07;100.00;96044.09;4932267;29;20555;-48
2022/12/20 04:12:10;;;;;;;4.32;2.97;;;5.10;68.20;;;0.09;100.00;96047.34;4914984;29;20027;-47
2022/12/20 04:14:36;;;;;;;5.35;3.30;;;5.10;68.20;;;0.14;100.00;96046.78;4915919;29;20074;-53
2022/12/20 04:17:08;;;;;;;5.13;3.00;;;5.20;68.30;;;0.14;100.00;96058.06;4932669;29;20027;-45
2022/12/20 04:19:34;;;;;;;4.25;2.40;;;5.20;68.20;;;0.11;100.00;96042.72;4930475;29;20051;-52
2022/12/20 04:22:03;;;;;;;4.68;2.88;;;5.20;68.20;;;0.08;100.00;96037.88;4921149;29;20028;-49
2022/12/20 04:24:29;;;;;;;5.93;3.22;;;5.20;68.10;;;0.04;100.00;96039.25;4920406;29;20028;-50
2022/12/20 04:27:01;;;;;;;6.50;3.60;;;5.20;68.10;;;0.05;100.00;96040.06;4915558;29;20390;-51
2022/12/20 04:29:32;;;;;;;8.87;3.40;;;5.20;68.10;;;0.10;100.00;96040.31;4922194;29;20050;-49
2022/12/20 04:31:58;;;;;;;5.85;3.65;;;5.20;68.20;;;0.17;100.00;96046.41;4923263;29;20282;-54
2022/12/20 04:34:27;;;;;;;5.53;3.00;;;5.30;68.40;;;0.24;100.00;96052.50;4931400;29;20506;-48
2022/12/20 04:36:53;;;;;;;6.13;3.50;;;5.30;68.50;;;0.29;100.00;96051.97;4922170;28;20047;-50
2022/12/20 04:39:22;;;;;;;10.38;3.67;;;5.40;68.50;;;0.33;100.00;96067.09;4928073;29;20055;-49
2022/12/20 04:41:51;;;;;;;5.18;2.72;;;5.40;68.40;;;0.36;100.00;96060.69;4927155;29;20107;-48
2022/12/20 04:44:17;;;;;;;6.90;3.03;;;5.40;68.40;;;0.37;100.00;96059.69;4933444;29;20023;-48
2022/12/20 04:46:45;;;;;;;6.93;3.35;;;5.50;68.30;;;0.35;100.00;96051.22;4921843;29;20033;-50
2022/12/20 04:49:11;;;;;;;5.45;2.97;;;5.50;68.20;;;0.30;100.00;96049.13;4932394;29;20126;-48
2022/12/20 04:51:37;;;;;;;5.13;3.13;;;5.50;68.10;;;0.32;100.00;96055.00;4933097;29;20544;-49
2022/12/20 04:54:06;;;;;;;9.48;3.95;;;5.50;68.10;;;0.33;100.00;96056.63;4981971;23;20131;-52
2022/12/20 04:56:32;;;;;;;6.05;3.53;;;5.50;68.00;;;0.31;100.00;96050.75;4966740;28;20061;-52
2022/12/20 04:59:04;;;;;;;6.15;3.40;;;5.50;68.00;;;0.29;100.00;96049.34;4965558;28;20026;-47
2022/12/20 05:01:32;;;;;;;8.43;3.83;;;5.40;67.90;;;0.28;100.00;96050.31;4968014;28;20089;-48
2022/12/20 05:04:01;;;;;;;7.70;3.40;;;5.40;67.90;;;0.18;100.00;96046.22;4952043;28;20030;-46
2022/12/20 05:06:27;;;;;;;5.85;3.42;;;5.40;67.90;;;0.11;100.00;96049.78;4955338;28;20083;-48
2022/12/20 05:08:59;;;;;;;8.45;3.65;;;5.30;67.80;;;0.04;100.00;96049.72;4971203;28;20022;-50
2022/12/20 05:11:25;;;;;;;15.13;6.40;;;5.30;67.70;;;-0.02;100.00;96048.66;4956819;28;20054;-50
2022/12/20 05:13:53;;;;;;;38.67;14.88;;;5.20;67.70;;;-0.07;100.00;96040.53;4971539;28;20312;-54
2022/12/20 05:16:29;;;;;;;43.20;17.88;;;5.20;67.70;;;-0.12;100.00;96042.91;4970844;28;20037;-53
2022/12/20 05:18:54;;;;;;;58.13;22.08;;;5.20;67.70;;;-0.19;100.00;96030.75;4954753;28;20049;-46
2022/12/20 05:27:03;;;;;;;59.08;22.27;;;5.00;68.00;;;-0.26;100.00;96020.22;4969022;28;20451;-46
2022/12/20 05:29:31;;;;;;;59.00;20.67;;;4.90;68.10;;;-0.22;100.00;96028.50;4966191;28;20030;-47
2022/12/20 05:32:00;;;;;;;58.85;21.42;;;4.90;68.20;;;-0.28;100.00;96032.69;4972015;28;20029;-46
2022/12/20 05:34:26;;;;;;;47.45;19.30;;;4.90;68.20;;;-0.28;100.00;96019.59;4949872;28;20122;-47
2022/12/20 05:37:18;;;;;;;57.38;20.50;;;4.90;68.20;;;-0.31;100.00;96019.97;4971568;28;20491;-54
2022/12/20 05:39:47;;;;;;;51.53;19.02;;;4.90;68.30;;;-0.33;100.00;96020.13;4970096;28;20022;-46
2022/12/20 05:42:13;;;;;;;52.10;19.08;;;4.90;68.30;;;-0.33;100.00;96019.34;4971844;28;20036;-46
2022/12/20 05:44:39;;;;;;;49.03;19.48;;;4.90;68.30;;;-0.35;100.00;96006.41;4969113;28;20034;-54
2022/12/20 05:47:08;;;;;;;42.38;18.20;;;4.90;68.40;;;-0.34;100.00;96013.28;4964069;28;20516;-46
2022/12/20 05:49:57;;;;;;;43.33;18.73;;;4.80;68.40;;;-0.33;100.00;96008.84;4971418;28;20026;-48
2022/12/20 05:52:26;;;;;;;45.55;17.13;;;4.80;68.40;;;-0.31;100.00;96002.44;4954160;28;20033;-46
2022/12/20 05:54:58;;;;;;;54.00;18.98;;;4.80;68.60;;;-0.31;100.00;96006.88;4968179;28;20042;-53
2022/12/20 05:57:27;;;;;;;41.15;16.65;;;4.80;68.50;;;-0.33;100.00;96001.81;4969869;28;20472;-46
2022/12/20 05:59:53;;;;;;;45.33;17.90;;;4.80;68.50;;;-0.31;100.00;95999.84;4945679;28;20120;-46
2022/12/20 06:02:25;;;;;;;39.30;16.25;;;4.80;68.60;;;-0.29;100.00;96005.66;4959626;28;20428;-47
2022/12/20 06:04:57;;;;;;;38.35;16.27;;;4.80;68.60;;;-0.32;100.00;96013.91;4967833;28;20030;-46
2022/12/20 06:07:33;;;;;;;40.53;17.00;;;4.80;68.60;;;-0.32;100.00;96007.84;4965747;28;20396;-46
2022/12/20 06:10:02;;;;;;;43.35;16.75;;;4.80;68.70;;;-0.30;100.00;96011.09;4965954;28;20388;-51
2022/12/20 06:12:31;;;;;;;38.22;15.50;;;4.80;68.70;;;-0.36;100.00;96006.63;4950375;28;20037;-46
2022/12/20 06:15:02;;;;;;;41.90;14.90;;;4.80;68.70;;;-0.35;100.00;96008.22;4967263;28;20480;-49
2022/12/20 06:17:31;;;;;;;37.15;14.77;;;4.80;68.60;;;-0.37;100.00;96008.44;4952308;28;20065;-46
2022/12/20 06:20:07;;;;;;;41.78;15.80;;;4.70;68.50;;;-0.41;100.00;96004.53;4953649;28;20042;-46
2022/12/20 06:22:33;;;;;;;38.80;14.85;;;4.70;68.50;;;-0.46;100.00;96006.91;4952386;28;20030;-46
2022/12/20 06:25:03;;;;;;;34.67;13.60;;;4.70;68.50;;;-0.53;100.00;95999.00;4937592;28;20021;-46
2022/12/20 06:27:29;;;;;;;32.60;13.48;;;4.70;68.50;;;-0.56;100.00;96003.78;4965593;28;20508;-46
2022/12/20 06:29:58;;;;;;;34.85;13.57;;;4.60;68.40;;;-0.59;100.00;95993.69;4962999;28;20034;-48
2022/12/20 06:32:24;;;;;;;32.25;13.02;;;4.60;68.40;;;-0.63;100.00;95997.66;4957915;28;20030;-53
2022/12/20 06:34:50;;;;;;;28.33;11.90;;;4.60;68.40;;;-0.63;100.00;95997.66;4969248;28;20029;-46
2022/12/20 06:37:28;;;;;;;35.00;12.05;;;4.50;68.50;;;-0.64;100.00;95996.84;4970421;28;20038;-46
2022/12/20 06:39:54;;;;;;;35.85;12.50;;;4.50;68.70;;;-0.70;100.00;95990.53;4969202;28;20109;-46
2022/12/20 06:42:22;;;;;;;35.72;12.02;;;4.50;68.60;;;-0.71;100.00;95988.94;4953433;28;20109;-46
2022/12/20 06:44:48;;;;;;;30.58;11.02;;;4.50;68.70;;;-0.73;100.00;95984.88;4961407;28;20543;-46
2022/12/20 06:47:17;;;;;;;34.28;10.50;;;4.50;68.70;;;-0.73;100.00;95990.91;4961525;28;20024;-55
2022/12/20 06:49:42;;;;;;;24.88;10.30;;;4.50;68.80;;;-0.68;100.00;96000.03;4964176;28;20017;-47
2022/12/20 06:52:20;;;;;;;26.92;10.10;;;4.40;68.80;;;-0.68;100.00;96011.31;4956983;28;20484;-51
2022/12/20 06:54:46;;;;;;;25.98;10.35;;;4.50;68.90;;;-0.64;100.00;96011.75;4912582;28;25321;-46
2022/12/20 06:57:12;;;;;;;20.27;9.25;;;4.50;68.90;;;-0.65;100.00;96016.16;4944607;28;20070;-51
2022/12/20 06:59:41;;;;;;;27.40;12.52;;;4.50;69.00;;;-0.64;100.00;96009.94;4949405;28;20027;-55
2022/12/20 07:02:11;;;;;;;22.98;9.45;;;4.50;69.00;;;-0.61;100.00;96008.75;4948072;28;20030;-50
2022/12/20 07:04:37;;;;;;;24.15;10.82;;;4.60;69.00;;;-0.62;100.00;96001.91;4938999;28;20081;-48
2022/12/20 07:07:04;;;;;;;36.13;11.00;;;4.60;69.00;;;-0.62;100.00;95994.88;4949120;28;20023;-46
2022/12/20 07:09:30;;;;;;;21.17;9.65;;;4.60;69.00;;;-0.63;100.00;96003.69;4928202;28;20544;-46
2022/12/20 07:11:57;;;;;;;23.35;8.82;;;4.60;68.90;;;-0.64;100.00;95999.47;4941988;29;20045;-48
2022/12/20 07:14:23;;;;;;;24.75;9.80;;;4.70;68.90;;;-0.60;100.00;95992.06;4948240;28;20018;-46
2022/12/20 07:16:51;;;;;;;21.13;8.27;;;4.60;68.90;;;-0.53;100.00;95991.16;4949605;28;20042;-47
2022/12/20 07:19:20;;;;;;;18.15;7.88;;;4.70;69.10;;;-0.47;100.00;95989.56;4956632;28;20492;-46
2022/12/20 07:21:47;;;;;;;18.00;7.97;;;4.70;69.20;;;-0.38;100.00;95985.03;4954859;28;20492;-45
2022/12/20 07:24:12;;;;;;;17.95;8.63;;;4.80;69.30;;;-0.30;100.00;95990.97;4952443;28;20121;-46
2022/12/20 07:26:38;;;;;;;18.00;7.50;;;4.90;69.30;;;-0.20;100.00;95995.09;4952684;28;20110;-55
2022/12/20 07:29:05;;;;;;;15.50;7.45;;;4.90;69.30;;;-0.12;100.00;95993.16;4951876;28;20022;-46
2022/12/20 07:31:31;;;;;;;18.20;7.68;;;5.00;69.50;;;-0.04;100.00;95995.63;4952079;28;20035;-49
2022/12/20 07:33:57;;;;;;;16.88;6.70;;;5.10;69.40;;;-0.01;100.00;95994.44;4949646;28;20082;-49
2022/12/20 07:36:23;;;;;;;14.25;6.45;;;5.10;69.30;;;0.04;100.00;95999.94;4935287;28;20034;-46
2022/12/20 07:38:49;;;;;;;15.90;7.00;;;5.20;69.40;;;0.12;100.00;95993.75;4951597;28;20018;-46
2022/12/20 07:41:18;;;;;;;15.32;6.40;;;5.30;69.30;;;0.21;100.00;96006.53;4951632;28;20152;-47
2022/12/20 07:43:47;;;;;;;14.38;6.38;;;5.40;69.40;;;0.33;100.00;96009.44;4935182;28;20096;-47
2022/12/20 07:46:31;;;;;;;12.43;5.68;;;5.50;69.50;;;0.43;100.00;96012.56;4951509;28;20037;-46
2022/12/20 07:48:57;;;;;;;12.93;5.93;;;5.60;69.40;;;0.51;100.00;96008.19;4950518;28;20105;-47
2022/12/20 07:51:42;;;;;;;12.02;5.88;;;5.70;69.30;;;0.57;100.00;95997.75;4949727;28;20101;-46
2022/12/20 07:54:32;;;;;;;12.45;6.22;;;5.90;69.20;;;0.64;100.00;96001.22;4955085;28;20409;-52
2022/12/20 07:57:11;;;;;;;9.75;5.45;;;5.90;69.00;;;0.68;100.00;96002.44;4943763;28;20364;-54
2022/12/20 07:59:52;;;;;;;10.00;5.30;;;6.10;69.00;;;0.79;100.00;95995.88;4957062;28;20033;-46
2022/12/20 08:02:41;;;;;;;12.95;5.13;;;6.20;68.90;;;0.90;100.00;95997.91;4939057;28;20671;-46
2022/12/20 08:05:11;;;;;;;11.57;5.47;;;6.30;68.80;;;0.99;100.00;95995.97;4947478;28;20120;-46
2022/12/20 08:07:41;;;;;;;9.18;5.45;;;6.40;68.70;;;1.08;100.00;95999.25;4956032;28;20030;-47
2022/12/20 08:10:11;;;;;;;8.05;4.72;;;6.50;68.60;;;1.17;100.00;95999.88;4928814;28;20018;-46
2022/12/20 08:12:40;;;;;;;8.55;5.00;;;6.60;68.40;;;1.26;100.00;95993.47;4954633;28;20434;-48
2022/12/20 08:15:13;;;;;;;9.15;5.10;;;6.70;68.40;;;1.36;100.00;95991.28;4938392;28;20050;-47
2022/12/20 08:17:39;;;;;;;12.35;4.90;;;6.90;68.30;;;1.47;100.00;95976.75;4942777;28;20038;-49
2022/12/20 08:20:09;;;;;;;9.38;4.80;;;7.00;68.10;;;1.57;100.00;95975.41;4955779;28;20027;-46
2022/12/20 08:22:38;;;;;;;8.13;4.43;;;7.10;67.90;;;1.58;100.00;95973.56;4967211;28;20029;-47
2022/12/20 08:25:04;;;;;;;10.60;4.50;;;7.30;67.80;;;1.77;100.00;95983.31;4954746;28;20022;-46
2022/12/20 08:27:38;;;;;;;7.38;4.57;;;7.40;67.60;;;1.94;100.00;95981.09;4950844;28;20113;-47
2022/12/20 08:30:09;;;;;;;7.05;4.45;;;7.60;67.50;;;2.03;100.00;95971.22;4967345;28;20113;-48
2022/12/20 08:32:36;;;;;;;7.95;4.57;;;7.70;67.50;;;2.08;100.00;95974.84;4972934;28;20029;-46
2022/12/20 08:35:04;;;;;;;7.25;3.75;;;7.80;67.20;;;2.19;100.00;95970.00;4964931;28;20030;-47
2022/12/20 08:37:30;;;;;;;6.95;4.45;;;7.90;67.00;;;2.30;99.81;95974.66;4972790;28;20030;-46
2022/12/20 08:39:59;;;;;;;6.70;4.32;;;8.00;66.90;;;2.40;99.02;95967.16;4953869;28;20026;-48
2022/12/20 08:42:27;;;;;;;9.15;5.00;;;8.10;66.60;;;2.39;99.07;95960.28;4955058;28;20022;-50
2022/12/20 08:45:02;;;;;;;5.32;3.65;;;8.20;66.40;;;2.49;98.55;95967.78;4954213;28;20447;-49
2022/12/20 08:47:34;;;;;;;8.05;3.83;;;8.30;66.30;;;2.59;98.18;95960.25;4955387;28;20026;-48
2022/12/20 08:50:00;;;;;;;8.30;4.43;;;8.40;66.20;;;2.70;98.00;95962.28;4955171;28;20045;-48
2022/12/20 08:52:30;;;;;;;6.20;3.88;;;8.50;66.10;;;2.78;97.30;95967.31;4970853;28;20539;-46
2022/12/20 08:55:02;;;;;;;8.27;4.03;;;8.60;65.90;;;2.91;97.18;95969.09;4954626;28;20034;-49
2022/12/20 08:57:28;;;;;;;11.05;4.32;;;8.70;65.70;;;3.00;96.98;95981.00;4938350;28;20165;-47
2022/12/20 08:59:57;;;;;;;15.60;7.85;;;8.80;65.60;;;3.09;96.27;95983.44;4972703;28;20140;-47
2022/12/20 09:02:29;;;;;;;8.10;4.97;;;9.00;65.40;;;3.12;95.94;95983.00;4970203;28;20038;-48
2022/12/20 09:05:08;;;;;;;8.00;4.78;;;9.10;65.10;;;3.27;96.29;95974.88;4945784;28;20076;-47
2022/12/20 09:07:33;;;;;;;8.98;4.63;;;9.20;65.00;;;3.34;95.10;95989.59;4969637;28;20531;-47
2022/12/20 09:10:03;;;;;;;11.57;6.25;;;9.30;64.90;;;3.38;95.15;95977.63;4971018;28;20026;-47
2022/12/20 09:12:37;;;;;;;15.48;7.20;;;9.30;64.60;;;3.41;94.98;95976.41;4971752;28;20060;-47
2022/12/20 09:15:10;;;;;;;10.27;5.38;;;9.50;64.50;;;3.51;94.44;95971.53;4954112;28;20194;-47
2022/12/20 09:17:36;;;;;;;10.63;6.07;;;9.60;64.40;;;3.61;94.24;95981.59;4954931;28;20214;-47
2022/12/20 09:20:04;;;;;;;12.82;5.97;;;9.80;64.30;;;3.72;93.99;95991.44;4923022;28;20030;-49
2022/12/20 09:22:30;;;;;;;7.85;4.70;;;9.90;64.00;;;3.76;93.16;95991.84;4970299;28;20051;-49
2022/12/20 09:24:55;;;;;;;5.85;3.92;;;10.00;63.70;;;3.82;93.35;95983.09;4971544;28;20034;-47
2022/12/20 09:27:22;;;;;;;6.68;4.95;;;10.10;63.50;;;3.83;91.93;95987.34;4966209;28;20030;-47
2022/12/20 09:29:50;;;;;;;5.80;4.10;;;10.10;63.90;;;3.87;91.00;95980.63;4965300;28;20029;-48
2022/12/20 09:32:19;;;;;;;11.63;4.07;;;10.20;62.90;;;3.90;91.70;95986.28;4958528;28;20033;-47
2022/12/20 09:34:48;;;;;;;6.10;3.85;;;10.20;62.80;;;3.96;91.16;95986.47;4970265;28;20018;-51
2022/12/20 09:37:20;;;;;;;8.23;4.35;;;10.30;62.60;;;3.92;90.68;95986.88;4952899;28;20049;-50
2022/12/20 09:40:17;;;;;;;10.40;4.03;;;10.30;62.50;;;3.98;90.29;95974.69;4946880;28;20039;-48
2022/12/20 09:42:50;;;;;;;6.05;4.03;;;10.30;62.20;;;4.03;90.41;95980.13;4938788;28;20030;-50
2022/12/20 09:45:36;;;;;;;9.13;4.72;;;10.30;62.20;;;4.13;89.70;95977.81;4924980;28;20033;-47
2022/12/20 09:48:04;;;;;;;10.45;4.13;;;10.30;62.80;;;4.18;88.65;95977.19;4938384;28;20034;-48
2022/12/20 09:51:20;;;;;;;7.00;3.92;;;10.40;62.30;;;4.27;88.47;95962.72;4938776;28;20026;-47
2022/12/20 09:54:46;;;;;;;8.35;4.45;;;10.50;62.00;;;4.25;88.54;95966.56;4960970;28;20061;-49
2022/12/20 09:57:50;;;;;;;7.45;4.10;;;10.60;61.90;;;4.34;88.25;95954.72;4960869;28;20139;-49
2022/12/20 10:00:20;;;;;;;6.38;4.13;;;10.70;61.70;;;4.43;87.48;95961.34;4941227;28;20036;-49
2022/12/20 10:02:49;;;;;;;8.35;4.38;;;10.80;61.60;;;4.60;88.14;95959.75;4965794;28;20026;-52
2022/12/20 10:05:33;;;;;;;10.98;4.70;;;10.90;61.30;;;4.68;87.29;95956.06;4934597;28;20164;-50
2022/12/20 10:08:00;;;;;;;5.80;3.83;;;11.10;61.00;;;4.78;87.03;95951.06;4935379;28;20030;-53
2022/12/20 10:11:17;;;;;;;7.32;4.47;;;11.30;60.90;;;4.88;87.11;95946.09;4967756;28;20092;-51
2022/12/20 10:14:12;;;;;;;8.48;4.93;;;11.40;60.40;;;5.05;86.56;95948.16;4947804;28;20049;-48
2022/12/20 10:16:46;;;;;;;7.43;4.63;;;11.60;60.20;;;5.09;86.68;95938.75;4969588;28;20092;-57
2022/12/20 10:20:02;;;;;;;21.88;9.15;;;11.70;60.00;;;5.21;86.81;95939.63;4969406;28;20026;-49
2022/12/20 10:22:48;;;;;;;11.80;5.20;;;11.90;59.80;;;5.24;86.39;95923.34;4964267;28;20026;-50
2022/12/20 10:25:31;;;;;;;6.30;4.63;;;12.00;59.70;;;5.24;85.44;95912.78;4937800;28;20229;-51
2022/12/20 10:28:09;;;;;;;5.53;4.05;;;12.20;59.40;;;5.35;85.04;95905.91;4943685;28;20030;-49
2022/12/20 10:30:35;;;;;;;6.40;4.20;;;12.30;59.10;;;5.46;83.66;95901.72;4953974;28;20038;-48
2022/12/20 10:33:02;;;;;;;5.68;3.75;;;12.60;58.90;;;5.59;82.44;95892.81;4967778;28;20050;-49
2022/12/20 10:35:40;;;;;;;5.50;3.40;;;12.90;58.50;;;5.66;80.96;95893.50;4932772;28;20572;-50
2022/12/20 10:38:13;;;;;;;5.57;3.75;;;13.20;57.80;;;6.00;79.58;95889.38;4953653;28;20451;-55
2022/12/20 10:41:01;;;;;;;6.47;3.65;;;13.60;57.40;;;6.52;76.91;95888.69;4944593;28;20477;-57
2022/12/20 10:43:44;;;;;;;5.90;3.28;;;14.30;56.90;;;6.88;75.40;95879.69;4948846;28;20508;-53
2022/12/20 10:46:15;;;;;;;5.88;3.85;;;15.00;56.20;;;6.99;73.27;95875.38;4937311;28;20022;-55
2022/12/20 10:48:48;;;;;;;5.97;3.30;;;15.20;55.60;;;7.14;74.03;95870.38;4952115;28;20117;-54
2022/12/20 10:51:21;;;;;;;5.20;3.40;;;15.10;55.20;;;7.40;73.22;95871.69;4939245;28;20401;-54
2022/12/20 10:54:18;;;;;;;4.68;2.92;;;15.30;54.90;;;7.52;70.50;95850.41;4935790;28;20408;-59
2022/12/20 10:57:00;;;;;;;7.93;3.30;;;15.50;54.40;;;7.80;72.05;95838.97;4953595;28;20030;-59